sensor_id;sensor_type;location;lat;lon;timestamp;temperature;humidity
24384;DHT22;12504;52.870;8.798;2022-07-12T00:01:51;15.50;99.90
24384;DHT22;12504;52.870;8.798;2022-07-12T00:04:17;15.50;99.90
24384;DHT22;12504;52.870;8.798;2022-07-12T00:06:43;15.60;99.90
24384;DHT22;12504;52.870;8.798;2022-07-12T00:09:09;15.60;99.90
24384;DHT22;12504;52.870;8.798;2022-07-12T00:11:35;15.60;99.90
24384;DHT22;12504;52.870;8.798;2022-07-12T00:14:01;15.60;99.90
24384;DHT22;12504;52.870;8.798;2022-07-12T00:16:27;15.50;99.90
24384;DHT22;12504;52.870;8.798;2022-07-12T00:18:53;15.50;99.90
24384;DHT22;12504;52.870;8.798;2022-07-12T00:21:19;15.50;99.90
24384;DHT22;12504;52.870;8.798;2022-07-12T00:23:45;15.50;99.90
24384;DHT22;12504;52.870;8.798;2022-07-12T00:26:11;15.50;99.90
24384;DHT22;12504;52.870;8.798;2022-07-12T00:28:37;15.50;99.90
24384;DHT22;12504;52.870;8.798;2022-07-12T00:31:03;15.50;99.90
24384;DHT22;12504;52.870;8.798;2022-07-12T00:33:28;15.50;99.90
24384;DHT22;12504;52.870;8.798;2022-07-12T00:35:54;15.50;99.90
24384;DHT22;12504;52.870;8.798;2022-07-12T00:38:20;15.50;99.90
24384;DHT22;12504;52.870;8.798;2022-07-12T00:40:46;15.40;99.90
24384;DHT22;12504;52.870;8.798;2022-07-12T00:43:12;15.40;99.90
24384;DHT22;12504;52.870;8.798;2022-07-12T00:45:38;15.40;99.90
24384;DHT22;12504;52.870;8.798;2022-07-12T00:48:04;15.50;99.90
24384;DHT22;12504;52.870;8.798;2022-07-12T00:50:29;15.50;99.90
24384;DHT22;12504;52.870;8.798;2022-07-12T00:52:55;15.40;99.90
24384;DHT22;12504;52.870;8.798;2022-07-12T00:55:22;15.50;99.90
24384;DHT22;12504;52.870;8.798;2022-07-12T00:57:48;15.50;99.90
24384;DHT22;12504;52.870;8.798;2022-07-12T01:00:19;15.40;99.90
24384;DHT22;12504;52.870;8.798;2022-07-12T01:02:45;15.50;99.90
24384;DHT22;12504;52.870;8.798;2022-07-12T01:05:12;15.50;99.90
24384;DHT22;12504;52.870;8.798;2022-07-12T01:07:38;15.40;99.90
24384;DHT22;12504;52.870;8.798;2022-07-12T01:10:07;15.40;99.90
24384;DHT22;12504;52.870;8.798;2022-07-12T01:12:33;15.40;99.90
24384;DHT22;12504;52.870;8.798;2022-07-12T01:14:59;15.30;99.90
24384;DHT22;12504;52.870;8.798;2022-07-12T01:17:27;15.30;99.90
24384;DHT22;12504;52.870;8.798;2022-07-12T01:19:55;15.30;99.90
24384;DHT22;12504;52.870;8.798;2022-07-12T01:22:31;15.30;99.90
24384;DHT22;12504;52.870;8.798;2022-07-12T01:24:59;15.20;99.90
24384;DHT22;12504;52.870;8.798;2022-07-12T01:27:25;15.20;99.90
24384;DHT22;12504;52.870;8.798;2022-07-12T01:29:50;15.20;99.90
24384;DHT22;12504;52.870;8.798;2022-07-12T01:32:16;15.30;99.90
24384;DHT22;12504;52.870;8.798;2022-07-12T01:34:56;15.20;99.90
24384;DHT22;12504;52.870;8.798;2022-07-12T01:37:23;15.30;99.90
24384;DHT22;12504;52.870;8.798;2022-07-12T01:39:54;15.20;99.90
24384;DHT22;12504;52.870;8.798;2022-07-12T01:42:21;15.20;99.90
24384;DHT22;12504;52.870;8.798;2022-07-12T01:44:48;15.20;99.90
24384;DHT22;12504;52.870;8.798;2022-07-12T01:47:16;15.10;99.90
24384;DHT22;12504;52.870;8.798;2022-07-12T01:49:42;15.10;99.90
24384;DHT22;12504;52.870;8.798;2022-07-12T01:52:08;15.20;99.90
24384;DHT22;12504;52.870;8.798;2022-07-12T01:54:33;15.10;99.90
24384;DHT22;12504;52.870;8.798;2022-07-12T01:56:59;15.10;99.90
24384;DHT22;12504;52.870;8.798;2022-07-12T01:59:25;15.10;99.90
24384;DHT22;12504;52.870;8.798;2022-07-12T02:01:52;15.10;99.90
24384;DHT22;12504;52.870;8.798;2022-07-12T02:04:18;15.10;99.90
24384;DHT22;12504;52.870;8.798;2022-07-12T02:06:45;15.10;99.90
24384;DHT22;12504;52.870;8.798;2022-07-12T02:09:11;15.20;99.90
24384;DHT22;12504;52.870;8.798;2022-07-12T02:11:38;15.20;99.90
24384;DHT22;12504;52.870;8.798;2022-07-12T02:14:03;15.20;99.90
24384;DHT22;12504;52.870;8.798;2022-07-12T02:16:29;15.30;99.90
24384;DHT22;12504;52.870;8.798;2022-07-12T02:18:55;15.30;99.90
24384;DHT22;12504;52.870;8.798;2022-07-12T02:21:21;15.20;99.90
24384;DHT22;12504;52.870;8.798;2022-07-12T02:23:46;15.20;99.90
24384;DHT22;12504;52.870;8.798;2022-07-12T02:26:12;15.20;99.90
24384;DHT22;12504;52.870;8.798;2022-07-12T02:28:39;15.20;99.90
24384;DHT22;12504;52.870;8.798;2022-07-12T02:31:04;15.20;99.90
24384;DHT22;12504;52.870;8.798;2022-07-12T02:33:31;15.20;99.90
24384;DHT22;12504;52.870;8.798;2022-07-12T02:35:56;15.20;99.90
24384;DHT22;12504;52.870;8.798;2022-07-12T02:38:22;15.20;99.90
24384;DHT22;12504;52.870;8.798;2022-07-12T02:40:48;15.10;99.90
24384;DHT22;12504;52.870;8.798;2022-07-12T02:43:22;15.10;99.90
24384;DHT22;12504;52.870;8.798;2022-07-12T02:45:49;15.10;99.90
24384;DHT22;12504;52.870;8.798;2022-07-12T02:48:15;15.10;99.90
24384;DHT22;12504;52.870;8.798;2022-07-12T02:50:42;15.10;99.90
24384;DHT22;12504;52.870;8.798;2022-07-12T02:53:08;15.10;99.90
24384;DHT22;12504;52.870;8.798;2022-07-12T02:55:34;15.10;99.90
24384;DHT22;12504;52.870;8.798;2022-07-12T02:58:01;15.10;99.90
24384;DHT22;12504;52.870;8.798;2022-07-12T03:00:28;15.10;99.90
24384;DHT22;12504;52.870;8.798;2022-07-12T03:02:54;15.10;99.90
24384;DHT22;12504;52.870;8.798;2022-07-12T03:05:20;15.20;99.90
24384;DHT22;12504;52.870;8.798;2022-07-12T03:07:45;15.20;99.90
24384;DHT22;12504;52.870;8.798;2022-07-12T03:10:11;15.20;99.90
24384;DHT22;12504;52.870;8.798;2022-07-12T03:12:37;15.20;99.90
24384;DHT22;12504;52.870;8.798;2022-07-12T03:15:04;15.10;99.90
24384;DHT22;12504;52.870;8.798;2022-07-12T03:17:30;15.20;99.90
24384;DHT22;12504;52.870;8.798;2022-07-12T03:19:56;15.20;99.90
24384;DHT22;12504;52.870;8.798;2022-07-12T03:22:22;15.10;99.90
24384;DHT22;12504;52.870;8.798;2022-07-12T03:24:47;15.20;99.90
24384;DHT22;12504;52.870;8.798;2022-07-12T03:27:13;15.20;99.90
24384;DHT22;12504;52.870;8.798;2022-07-12T03:29:39;15.20;99.90
24384;DHT22;12504;52.870;8.798;2022-07-12T03:32:06;15.10;99.90
24384;DHT22;12504;52.870;8.798;2022-07-12T03:34:32;15.10;99.90
24384;DHT22;12504;52.870;8.798;2022-07-12T03:36:58;15.10;99.90
24384;DHT22;12504;52.870;8.798;2022-07-12T03:39:24;15.10;99.90
24384;DHT22;12504;52.870;8.798;2022-07-12T03:41:50;15.10;99.90
24384;DHT22;12504;52.870;8.798;2022-07-12T03:44:16;15.10;99.90
24384;DHT22;12504;52.870;8.798;2022-07-12T03:46:41;15.10;99.90
24384;DHT22;12504;52.870;8.798;2022-07-12T03:49:07;15.10;99.90
24384;DHT22;12504;52.870;8.798;2022-07-12T03:51:33;15.10;99.90
24384;DHT22;12504;52.870;8.798;2022-07-12T03:53:59;15.10;99.90
24384;DHT22;12504;52.870;8.798;2022-07-12T03:56:25;15.10;99.90
24384;DHT22;12504;52.870;8.798;2022-07-12T03:59:09;15.10;99.90
24384;DHT22;12504;52.870;8.798;2022-07-12T04:01:35;15.10;99.90
24384;DHT22;12504;52.870;8.798;2022-07-12T04:04:01;15.10;99.90
24384;DHT22;12504;52.870;8.798;2022-07-12T04:06:28;15.10;99.90
24384;DHT22;12504;52.870;8.798;2022-07-12T04:08:53;15.20;99.90
24384;DHT22;12504;52.870;8.798;2022-07-12T04:11:19;15.10;99.90
24384;DHT22;12504;52.870;8.798;2022-07-12T04:13:45;15.10;99.90
24384;DHT22;12504;52.870;8.798;2022-07-12T04:16:11;15.10;99.90
24384;DHT22;12504;52.870;8.798;2022-07-12T04:18:38;15.20;99.90
24384;DHT22;12504;52.870;8.798;2022-07-12T04:21:04;15.20;99.90
24384;DHT22;12504;52.870;8.798;2022-07-12T04:23:29;15.20;99.90
24384;DHT22;12504;52.870;8.798;2022-07-12T04:25:55;15.20;99.90
24384;DHT22;12504;52.870;8.798;2022-07-12T04:28:21;15.20;99.90
24384;DHT22;12504;52.870;8.798;2022-07-12T04:30:47;15.20;99.90
24384;DHT22;12504;52.870;8.798;2022-07-12T04:33:14;15.20;99.90
24384;DHT22;12504;52.870;8.798;2022-07-12T04:35:40;15.20;99.90
24384;DHT22;12504;52.870;8.798;2022-07-12T04:38:07;15.20;99.90
24384;DHT22;12504;52.870;8.798;2022-07-12T04:40:33;15.30;99.90
24384;DHT22;12504;52.870;8.798;2022-07-12T04:42:59;15.30;99.90
24384;DHT22;12504;52.870;8.798;2022-07-12T04:45:24;15.20;99.90
24384;DHT22;12504;52.870;8.798;2022-07-12T04:47:51;15.30;99.90
24384;DHT22;12504;52.870;8.798;2022-07-12T04:50:16;15.30;99.90
24384;DHT22;12504;52.870;8.798;2022-07-12T04:52:43;15.30;99.90
24384;DHT22;12504;52.870;8.798;2022-07-12T04:55:09;15.40;99.90
24384;DHT22;12504;52.870;8.798;2022-07-12T04:57:35;15.40;99.90
24384;DHT22;12504;52.870;8.798;2022-07-12T05:00:01;15.40;99.90
24384;DHT22;12504;52.870;8.798;2022-07-12T05:02:27;15.50;99.90
24384;DHT22;12504;52.870;8.798;2022-07-12T05:04:53;15.60;99.90
24384;DHT22;12504;52.870;8.798;2022-07-12T05:07:18;15.70;99.90
24384;DHT22;12504;52.870;8.798;2022-07-12T05:09:46;15.70;99.90
24384;DHT22;12504;52.870;8.798;2022-07-12T05:12:11;15.80;99.90
24384;DHT22;12504;52.870;8.798;2022-07-12T05:14:37;16.00;99.90
24384;DHT22;12504;52.870;8.798;2022-07-12T05:17:03;15.90;99.90
24384;DHT22;12504;52.870;8.798;2022-07-12T05:19:29;16.00;99.90
24384;DHT22;12504;52.870;8.798;2022-07-12T05:21:54;15.90;99.90
24384;DHT22;12504;52.870;8.798;2022-07-12T05:24:20;15.90;99.90
24384;DHT22;12504;52.870;8.798;2022-07-12T05:26:45;15.90;99.90
24384;DHT22;12504;52.870;8.798;2022-07-12T05:29:11;15.80;99.90
24384;DHT22;12504;52.870;8.798;2022-07-12T05:31:36;15.90;99.90
24384;DHT22;12504;52.870;8.798;2022-07-12T05:34:02;15.90;99.90
24384;DHT22;12504;52.870;8.798;2022-07-12T05:36:28;15.90;99.90
24384;DHT22;12504;52.870;8.798;2022-07-12T05:38:54;16.00;99.90
24384;DHT22;12504;52.870;8.798;2022-07-12T05:41:19;16.10;99.90
24384;DHT22;12504;52.870;8.798;2022-07-12T05:43:45;16.20;99.90
24384;DHT22;12504;52.870;8.798;2022-07-12T05:46:11;16.20;99.90
24384;DHT22;12504;52.870;8.798;2022-07-12T05:48:37;16.20;99.90
24384;DHT22;12504;52.870;8.798;2022-07-12T05:51:03;16.20;99.90
24384;DHT22;12504;52.870;8.798;2022-07-12T05:53:48;16.10;99.90
24384;DHT22;12504;52.870;8.798;2022-07-12T05:56:13;16.00;99.90
24384;DHT22;12504;52.870;8.798;2022-07-12T05:58:39;16.10;99.90
24384;DHT22;12504;52.870;8.798;2022-07-12T06:01:06;16.10;99.90
24384;DHT22;12504;52.870;8.798;2022-07-12T06:03:32;16.10;99.90
24384;DHT22;12504;52.870;8.798;2022-07-12T06:05:58;16.20;99.90
24384;DHT22;12504;52.870;8.798;2022-07-12T06:08:23;16.20;99.90
24384;DHT22;12504;52.870;8.798;2022-07-12T06:10:49;16.30;99.90
24384;DHT22;12504;52.870;8.798;2022-07-12T06:13:15;16.30;99.90
24384;DHT22;12504;52.870;8.798;2022-07-12T06:15:41;16.30;99.90
24384;DHT22;12504;52.870;8.798;2022-07-12T06:18:07;16.40;99.90
24384;DHT22;12504;52.870;8.798;2022-07-12T06:20:33;16.40;99.90
24384;DHT22;12504;52.870;8.798;2022-07-12T06:22:59;16.60;99.90
24384;DHT22;12504;52.870;8.798;2022-07-12T06:25:25;16.70;99.90
24384;DHT22;12504;52.870;8.798;2022-07-12T06:27:51;16.80;99.90
24384;DHT22;12504;52.870;8.798;2022-07-12T06:30:18;17.00;99.90
24384;DHT22;12504;52.870;8.798;2022-07-12T06:32:48;17.10;99.90
24384;DHT22;12504;52.870;8.798;2022-07-12T06:35:14;17.40;99.90
24384;DHT22;12504;52.870;8.798;2022-07-12T06:37:41;17.70;99.90
24384;DHT22;12504;52.870;8.798;2022-07-12T06:40:08;17.90;99.90
24384;DHT22;12504;52.870;8.798;2022-07-12T06:42:34;17.90;99.90
24384;DHT22;12504;52.870;8.798;2022-07-12T06:45:00;18.00;99.90
24384;DHT22;12504;52.870;8.798;2022-07-12T06:47:26;18.20;99.90
24384;DHT22;12504;52.870;8.798;2022-07-12T06:49:52;18.10;99.90
24384;DHT22;12504;52.870;8.798;2022-07-12T06:52:18;18.10;99.90
24384;DHT22;12504;52.870;8.798;2022-07-12T06:54:43;18.20;99.90
24384;DHT22;12504;52.870;8.798;2022-07-12T06:57:10;18.30;99.90
24384;DHT22;12504;52.870;8.798;2022-07-12T06:59:36;18.20;99.90
24384;DHT22;12504;52.870;8.798;2022-07-12T07:02:02;18.30;99.90
24384;DHT22;12504;52.870;8.798;2022-07-12T07:04:28;18.40;99.90
24384;DHT22;12504;52.870;8.798;2022-07-12T07:06:53;18.40;99.90
24384;DHT22;12504;52.870;8.798;2022-07-12T07:09:19;18.30;99.90
24384;DHT22;12504;52.870;8.798;2022-07-12T07:11:45;18.30;99.90
24384;DHT22;12504;52.870;8.798;2022-07-12T07:14:11;18.30;99.90
24384;DHT22;12504;52.870;8.798;2022-07-12T07:16:37;18.20;99.90
24384;DHT22;12504;52.870;8.798;2022-07-12T07:19:03;18.30;99.90
24384;DHT22;12504;52.870;8.798;2022-07-12T07:21:29;18.40;99.90
24384;DHT22;12504;52.870;8.798;2022-07-12T07:23:54;18.80;98.30
24384;DHT22;12504;52.870;8.798;2022-07-12T07:26:21;18.90;99.90
24384;DHT22;12504;52.870;8.798;2022-07-12T07:28:47;19.10;99.90
24384;DHT22;12504;52.870;8.798;2022-07-12T07:31:35;19.30;93.80
24384;DHT22;12504;52.870;8.798;2022-07-12T07:34:01;19.40;88.60
24384;DHT22;12504;52.870;8.798;2022-07-12T07:36:27;19.50;74.20
24384;DHT22;12504;52.870;8.798;2022-07-12T07:38:53;19.40;75.50
24384;DHT22;12504;52.870;8.798;2022-07-12T07:41:18;19.60;69.00
24384;DHT22;12504;52.870;8.798;2022-07-12T07:43:44;19.60;72.10
24384;DHT22;12504;52.870;8.798;2022-07-12T07:46:10;19.60;85.20
24384;DHT22;12504;52.870;8.798;2022-07-12T07:48:36;19.70;88.00
24384;DHT22;12504;52.870;8.798;2022-07-12T07:51:02;19.90;52.40
24384;DHT22;12504;52.870;8.798;2022-07-12T07:53:27;20.10;32.00
24384;DHT22;12504;52.870;8.798;2022-07-12T07:55:54;20.10;35.70
24384;DHT22;12504;52.870;8.798;2022-07-12T07:58:20;20.00;33.60
24384;DHT22;12504;52.870;8.798;2022-07-12T08:00:52;19.90;42.60
24384;DHT22;12504;52.870;8.798;2022-07-12T08:03:19;19.50;49.00
24384;DHT22;12504;52.870;8.798;2022-07-12T08:05:45;19.10;95.10
24384;DHT22;12504;52.870;8.798;2022-07-12T08:08:11;18.80;95.80
24384;DHT22;12504;52.870;8.798;2022-07-12T08:10:37;19.20;89.20
24384;DHT22;12504;52.870;8.798;2022-07-12T08:13:02;19.20;99.90
24384;DHT22;12504;52.870;8.798;2022-07-12T08:15:28;19.30;97.10
24384;DHT22;12504;52.870;8.798;2022-07-12T08:17:54;19.50;97.70
24384;DHT22;12504;52.870;8.798;2022-07-12T08:20:25;19.80;85.80
24384;DHT22;12504;52.870;8.798;2022-07-12T08:22:51;20.00;48.40
24384;DHT22;12504;52.870;8.798;2022-07-12T08:25:16;20.00;47.10
24384;DHT22;12504;52.870;8.798;2022-07-12T08:27:43;20.00;29.90
24384;DHT22;12504;52.870;8.798;2022-07-12T08:30:09;19.80;54.50
24384;DHT22;12504;52.870;8.798;2022-07-12T08:32:36;19.90;34.80
24384;DHT22;12504;52.870;8.798;2022-07-12T08:35:03;19.90;31.50
24384;DHT22;12504;52.870;8.798;2022-07-12T08:37:29;19.90;28.80
24384;DHT22;12504;52.870;8.798;2022-07-12T08:39:54;20.00;23.50
24384;DHT22;12504;52.870;8.798;2022-07-12T08:42:20;20.00;17.10
24384;DHT22;12504;52.870;8.798;2022-07-12T08:44:56;20.10;29.00
24384;DHT22;12504;52.870;8.798;2022-07-12T08:47:22;20.30;32.00
24384;DHT22;12504;52.870;8.798;2022-07-12T08:50:19;20.50;29.20
24384;DHT22;12504;52.870;8.798;2022-07-12T08:52:47;20.80;24.20
24384;DHT22;12504;52.870;8.798;2022-07-12T08:57:52;21.30;1.00
24384;DHT22;12504;52.870;8.798;2022-07-12T09:00:19;21.40;1.00
24384;DHT22;12504;52.870;8.798;2022-07-12T09:02:50;21.70;1.00
24384;DHT22;12504;52.870;8.798;2022-07-12T09:05:19;22.00;1.00
24384;DHT22;12504;52.870;8.798;2022-07-12T09:07:46;21.90;1.00
24384;DHT22;12504;52.870;8.798;2022-07-12T09:10:12;21.90;1.00
24384;DHT22;12504;52.870;8.798;2022-07-12T09:12:38;21.80;1.00
24384;DHT22;12504;52.870;8.798;2022-07-12T09:15:23;21.70;1.00
24384;DHT22;12504;52.870;8.798;2022-07-12T09:17:56;21.80;1.00
24384;DHT22;12504;52.870;8.798;2022-07-12T09:20:30;21.60;1.00
24384;DHT22;12504;52.870;8.798;2022-07-12T09:23:06;21.50;1.00
24384;DHT22;12504;52.870;8.798;2022-07-12T09:25:33;21.50;1.00
24384;DHT22;12504;52.870;8.798;2022-07-12T09:28:02;21.10;1.00
24384;DHT22;12504;52.870;8.798;2022-07-12T09:30:29;21.20;1.00
24384;DHT22;12504;52.870;8.798;2022-07-12T09:32:59;21.10;1.00
24384;DHT22;12504;52.870;8.798;2022-07-12T09:35:59;21.30;1.00
24384;DHT22;12504;52.870;8.798;2022-07-12T09:41:02;21.50;1.00
24384;DHT22;12504;52.870;8.798;2022-07-12T09:43:28;21.40;1.00
24384;DHT22;12504;52.870;8.798;2022-07-12T09:45:55;21.60;1.00
24384;DHT22;12504;52.870;8.798;2022-07-12T09:48:22;21.70;1.00
24384;DHT22;12504;52.870;8.798;2022-07-12T09:50:50;21.70;1.00
24384;DHT22;12504;52.870;8.798;2022-07-12T09:53:21;21.60;1.00
24384;DHT22;12504;52.870;8.798;2022-07-12T09:55:50;21.40;1.00
24384;DHT22;12504;52.870;8.798;2022-07-12T09:58:26;21.60;1.00
24384;DHT22;12504;52.870;8.798;2022-07-12T10:00:53;22.10;1.00
24384;DHT22;12504;52.870;8.798;2022-07-12T10:03:23;22.20;1.00
24384;DHT22;12504;52.870;8.798;2022-07-12T10:05:52;22.20;1.00
24384;DHT22;12504;52.870;8.798;2022-07-12T10:08:21;22.40;1.00
24384;DHT22;12504;52.870;8.798;2022-07-12T10:10:48;22.80;1.00
24384;DHT22;12504;52.870;8.798;2022-07-12T10:13:16;22.80;1.00
24384;DHT22;12504;52.870;8.798;2022-07-12T10:15:44;23.00;1.00
24384;DHT22;12504;52.870;8.798;2022-07-12T10:18:19;23.00;1.00
24384;DHT22;12504;52.870;8.798;2022-07-12T10:20:48;23.10;1.00
24384;DHT22;12504;52.870;8.798;2022-07-12T10:23:30;23.40;1.00
24384;DHT22;12504;52.870;8.798;2022-07-12T10:29:00;23.70;1.00
24384;DHT22;12504;52.870;8.798;2022-07-12T10:31:37;23.90;99.90
24384;DHT22;12504;52.870;8.798;2022-07-12T10:34:14;24.00;99.90
24384;DHT22;12504;52.870;8.798;2022-07-12T10:39:23;24.40;99.90
24384;DHT22;12504;52.870;8.798;2022-07-12T10:44:34;24.80;99.90
24384;DHT22;12504;52.870;8.798;2022-07-12T10:47:01;25.10;99.90
24384;DHT22;12504;52.870;8.798;2022-07-12T11:04:28;25.40;99.90
24384;DHT22;12504;52.870;8.798;2022-07-12T11:09:23;31.80;1.00
24384;DHT22;12504;52.870;8.798;2022-07-12T11:11:51;32.50;99.90
24384;DHT22;12504;52.870;8.798;2022-07-12T11:14:28;33.10;1.00
24384;DHT22;12504;52.870;8.798;2022-07-12T11:16:59;33.10;1.00
24384;DHT22;12504;52.870;8.798;2022-07-12T11:19:27;32.10;1.00
24384;DHT22;12504;52.870;8.798;2022-07-12T11:21:54;32.40;1.00
24384;DHT22;12504;52.870;8.798;2022-07-12T11:24:33;32.00;1.00
24384;DHT22;12504;52.870;8.798;2022-07-12T11:27:03;31.80;1.00
24384;DHT22;12504;52.870;8.798;2022-07-12T11:29:30;31.40;1.00
24384;DHT22;12504;52.870;8.798;2022-07-12T11:32:04;31.00;1.00
24384;DHT22;12504;52.870;8.798;2022-07-12T11:34:31;30.40;1.00
24384;DHT22;12504;52.870;8.798;2022-07-12T11:36:59;29.90;1.00
24384;DHT22;12504;52.870;8.798;2022-07-12T11:39:34;29.50;1.00
24384;DHT22;12504;52.870;8.798;2022-07-12T11:42:00;29.50;1.00
24384;DHT22;12504;52.870;8.798;2022-07-12T11:44:45;29.60;1.00
24384;DHT22;12504;52.870;8.798;2022-07-12T11:47:11;29.50;1.00
24384;DHT22;12504;52.870;8.798;2022-07-12T11:49:41;29.30;1.00
24384;DHT22;12504;52.870;8.798;2022-07-12T11:52:08;29.40;1.00
24384;DHT22;12504;52.870;8.798;2022-07-12T11:54:34;29.20;1.00
24384;DHT22;12504;52.870;8.798;2022-07-12T11:57:10;29.50;1.00
24384;DHT22;12504;52.870;8.798;2022-07-12T11:59:36;29.70;1.00
24384;DHT22;12504;52.870;8.798;2022-07-12T12:02:06;30.40;1.00
24384;DHT22;12504;52.870;8.798;2022-07-12T12:04:44;30.70;1.00
24384;DHT22;12504;52.870;8.798;2022-07-12T12:07:10;30.80;1.00
24384;DHT22;12504;52.870;8.798;2022-07-12T12:10:00;31.80;1.00
24384;DHT22;12504;52.870;8.798;2022-07-12T12:12:34;31.80;99.90
24384;DHT22;12504;52.870;8.798;2022-07-12T12:15:06;32.70;99.90
24384;DHT22;12504;52.870;8.798;2022-07-12T12:17:33;32.90;99.90
24384;DHT22;12504;52.870;8.798;2022-07-12T12:20:11;32.30;99.90
24384;DHT22;12504;52.870;8.798;2022-07-12T12:22:37;31.80;99.90
24384;DHT22;12504;52.870;8.798;2022-07-12T12:25:04;32.50;99.90
24384;DHT22;12504;52.870;8.798;2022-07-12T12:27:31;32.20;99.90
24384;DHT22;12504;52.870;8.798;2022-07-12T12:30:04;31.30;99.90
24384;DHT22;12504;52.870;8.798;2022-07-12T12:32:30;32.20;99.90
24384;DHT22;12504;52.870;8.798;2022-07-12T12:35:06;32.80;99.90
24384;DHT22;12504;52.870;8.798;2022-07-12T12:37:31;32.60;99.90
24384;DHT22;12504;52.870;8.798;2022-07-12T12:39:57;33.60;99.10
24384;DHT22;12504;52.870;8.798;2022-07-12T12:42:24;33.60;95.30
24384;DHT22;12504;52.870;8.798;2022-07-12T12:44:50;33.80;72.10
24384;DHT22;12504;52.870;8.798;2022-07-12T12:47:16;33.80;28.30
24384;DHT22;12504;52.870;8.798;2022-07-12T12:49:57;33.90;1.00
24384;DHT22;12504;52.870;8.798;2022-07-12T12:52:27;34.00;19.40
24384;DHT22;12504;52.870;8.798;2022-07-12T12:54:54;33.40;15.50
24384;DHT22;12504;52.870;8.798;2022-07-12T12:57:20;33.60;14.60
24384;DHT22;12504;52.870;8.798;2022-07-12T12:59:45;32.90;1.00
24384;DHT22;12504;52.870;8.798;2022-07-12T13:02:12;32.20;1.00
24384;DHT22;12504;52.870;8.798;2022-07-12T13:04:38;31.90;19.60
24384;DHT22;12504;52.870;8.798;2022-07-12T13:07:05;31.60;46.00
24384;DHT22;12504;52.870;8.798;2022-07-12T13:09:33;31.90;29.40
24384;DHT22;12504;52.870;8.798;2022-07-12T13:11:59;31.70;1.00
24384;DHT22;12504;52.870;8.798;2022-07-12T13:14:26;31.90;6.00
24384;DHT22;12504;52.870;8.798;2022-07-12T13:16:52;32.10;3.60
24384;DHT22;12504;52.870;8.798;2022-07-12T13:19:18;32.30;9.30
24384;DHT22;12504;52.870;8.798;2022-07-12T13:21:45;32.50;1.00
24384;DHT22;12504;52.870;8.798;2022-07-12T13:24:11;32.50;1.00
24384;DHT22;12504;52.870;8.798;2022-07-12T13:26:37;32.10;1.00
24384;DHT22;12504;52.870;8.798;2022-07-12T13:29:03;31.70;3.40
24384;DHT22;12504;52.870;8.798;2022-07-12T13:33:55;31.40;1.00
24384;DHT22;12504;52.870;8.798;2022-07-12T13:36:21;30.40;95.60
24384;DHT22;12504;52.870;8.798;2022-07-12T13:38:49;30.00;99.90
24384;DHT22;12504;52.870;8.798;2022-07-12T13:41:15;30.50;94.20
24384;DHT22;12504;52.870;8.798;2022-07-12T13:43:41;30.40;40.00
24384;DHT22;12504;52.870;8.798;2022-07-12T13:46:06;30.30;19.10
24384;DHT22;12504;52.870;8.798;2022-07-12T13:48:32;30.20;7.50
24384;DHT22;12504;52.870;8.798;2022-07-12T13:50:59;30.10;84.40
24384;DHT22;12504;52.870;8.798;2022-07-12T13:53:25;29.70;13.40
24384;DHT22;12504;52.870;8.798;2022-07-12T13:55:50;29.60;46.10
24384;DHT22;12504;52.870;8.798;2022-07-12T13:58:16;29.60;1.00
24384;DHT22;12504;52.870;8.798;2022-07-12T14:52:15;29.10;26.80
24384;DHT22;12504;52.870;8.798;2022-07-12T14:54:41;28.30;99.90
24384;DHT22;12504;52.870;8.798;2022-07-12T14:57:07;28.20;1.00
24384;DHT22;12504;52.870;8.798;2022-07-12T14:59:33;28.10;99.90
24384;DHT22;12504;52.870;8.798;2022-07-12T15:01:59;28.00;1.00
24384;DHT22;12504;52.870;8.798;2022-07-12T15:04:25;28.10;1.00
24384;DHT22;12504;52.870;8.798;2022-07-12T15:06:51;28.10;1.00
24384;DHT22;12504;52.870;8.798;2022-07-12T15:09:16;28.00;1.00
24384;DHT22;12504;52.870;8.798;2022-07-12T15:11:42;28.10;1.00
24384;DHT22;12504;52.870;8.798;2022-07-12T15:14:08;28.30;99.90
24384;DHT22;12504;52.870;8.798;2022-07-12T15:16:34;28.30;99.90
24384;DHT22;12504;52.870;8.798;2022-07-12T15:18:59;28.20;99.90
24384;DHT22;12504;52.870;8.798;2022-07-12T15:21:25;28.40;99.90
24384;DHT22;12504;52.870;8.798;2022-07-12T15:23:52;28.50;99.90
24384;DHT22;12504;52.870;8.798;2022-07-12T15:26:18;28.40;99.90
24384;DHT22;12504;52.870;8.798;2022-07-12T15:28:56;28.40;99.90
24384;DHT22;12504;52.870;8.798;2022-07-12T15:31:22;28.30;99.90
24384;DHT22;12504;52.870;8.798;2022-07-12T15:33:49;28.30;99.90
24384;DHT22;12504;52.870;8.798;2022-07-12T15:36:15;28.30;99.90
24384;DHT22;12504;52.870;8.798;2022-07-12T15:38:42;28.20;99.90
24384;DHT22;12504;52.870;8.798;2022-07-12T15:41:10;28.20;99.90
24384;DHT22;12504;52.870;8.798;2022-07-12T15:43:36;28.10;99.90
24384;DHT22;12504;52.870;8.798;2022-07-12T15:46:08;27.80;99.90
24384;DHT22;12504;52.870;8.798;2022-07-12T15:48:35;27.50;99.90
24384;DHT22;12504;52.870;8.798;2022-07-12T15:51:00;27.40;99.90
24384;DHT22;12504;52.870;8.798;2022-07-12T15:53:26;27.30;99.90
24384;DHT22;12504;52.870;8.798;2022-07-12T15:56:06;27.40;99.90
24384;DHT22;12504;52.870;8.798;2022-07-12T15:58:35;27.50;99.90
24384;DHT22;12504;52.870;8.798;2022-07-12T16:01:01;27.50;1.00
24384;DHT22;12504;52.870;8.798;2022-07-12T16:03:28;27.30;99.90
24384;DHT22;12504;52.870;8.798;2022-07-12T16:05:56;27.10;99.90
24384;DHT22;12504;52.870;8.798;2022-07-12T16:08:22;26.90;99.90
24384;DHT22;12504;52.870;8.798;2022-07-12T16:10:48;27.00;1.00
24384;DHT22;12504;52.870;8.798;2022-07-12T16:13:15;27.10;99.90
24384;DHT22;12504;52.870;8.798;2022-07-12T16:15:41;27.10;99.90
24384;DHT22;12504;52.870;8.798;2022-07-12T16:18:07;27.00;99.90
24384;DHT22;12504;52.870;8.798;2022-07-12T16:20:33;27.10;99.90
24384;DHT22;12504;52.870;8.798;2022-07-12T16:23:00;27.10;1.00
24384;DHT22;12504;52.870;8.798;2022-07-12T16:25:26;27.30;1.00
24384;DHT22;12504;52.870;8.798;2022-07-12T16:27:52;27.40;99.90
24384;DHT22;12504;52.870;8.798;2022-07-12T16:30:23;27.30;99.90
24384;DHT22;12504;52.870;8.798;2022-07-12T16:32:49;27.20;99.90
24384;DHT22;12504;52.870;8.798;2022-07-12T16:35:15;27.20;99.90
24384;DHT22;12504;52.870;8.798;2022-07-12T16:37:41;27.00;99.90
24384;DHT22;12504;52.870;8.798;2022-07-12T16:40:07;26.80;99.90
24384;DHT22;12504;52.870;8.798;2022-07-12T16:42:34;26.70;99.90
24384;DHT22;12504;52.870;8.798;2022-07-12T16:45:00;26.50;99.90
24384;DHT22;12504;52.870;8.798;2022-07-12T16:47:26;26.30;9.80
24384;DHT22;12504;52.870;8.798;2022-07-12T16:49:52;26.20;99.90
24384;DHT22;12504;52.870;8.798;2022-07-12T16:52:18;26.20;99.90
24384;DHT22;12504;52.870;8.798;2022-07-12T16:59:36;26.00;1.00
24384;DHT22;12504;52.870;8.798;2022-07-12T17:02:02;25.80;99.90
24384;DHT22;12504;52.870;8.798;2022-07-12T17:04:29;25.80;1.00
24384;DHT22;12504;52.870;8.798;2022-07-12T17:06:55;25.50;99.90